sensor_id;sensor_type;location;lat;lon;timestamp;temperature;humidity
23629;DHT22;11991;57.150;-2.134;2022-10-16T00:01:22;9.10;99.90
23629;DHT22;11991;57.150;-2.134;2022-10-16T00:03:50;9.10;99.90
23629;DHT22;11991;57.150;-2.134;2022-10-16T00:06:19;9.10;99.90
23629;DHT22;11991;57.150;-2.134;2022-10-16T00:08:47;9.10;99.90
23629;DHT22;11991;57.150;-2.134;2022-10-16T00:11:28;9.10;99.90
23629;DHT22;11991;57.150;-2.134;2022-10-16T00:13:58;9.10;99.90
23629;DHT22;11991;57.150;-2.134;2022-10-16T00:16:26;9.10;99.90
23629;DHT22;11991;57.150;-2.134;2022-10-16T00:18:54;9.10;99.90
23629;DHT22;11991;57.150;-2.134;2022-10-16T00:21:24;9.10;99.90
23629;DHT22;11991;57.150;-2.134;2022-10-16T00:23:54;9.10;99.90
23629;DHT22;11991;57.150;-2.134;2022-10-16T00:26:21;9.10;99.90
23629;DHT22;11991;57.150;-2.134;2022-10-16T00:28:50;9.10;99.90
23629;DHT22;11991;57.150;-2.134;2022-10-16T00:31:19;9.10;99.90
23629;DHT22;11991;57.150;-2.134;2022-10-16T00:33:47;9.20;99.90
23629;DHT22;11991;57.150;-2.134;2022-10-16T00:36:17;9.20;99.90
23629;DHT22;11991;57.150;-2.134;2022-10-16T00:38:45;9.20;99.90
23629;DHT22;11991;57.150;-2.134;2022-10-16T00:41:16;9.20;99.90
23629;DHT22;11991;57.150;-2.134;2022-10-16T00:43:49;9.20;99.90
23629;DHT22;11991;57.150;-2.134;2022-10-16T00:51:37;9.20;99.90
23629;DHT22;11991;57.150;-2.134;2022-10-16T00:54:14;9.20;99.90
23629;DHT22;11991;57.150;-2.134;2022-10-16T00:56:43;9.10;99.90
23629;DHT22;11991;57.150;-2.134;2022-10-16T00:59:20;9.10;99.90
23629;DHT22;11991;57.150;-2.134;2022-10-16T01:01:49;9.10;99.90
23629;DHT22;11991;57.150;-2.134;2022-10-16T01:04:17;9.00;99.90
23629;DHT22;11991;57.150;-2.134;2022-10-16T01:07:03;9.00;99.90
23629;DHT22;11991;57.150;-2.134;2022-10-16T01:20:37;8.80;99.90
23629;DHT22;11991;57.150;-2.134;2022-10-16T01:31:19;8.80;99.90
23629;DHT22;11991;57.150;-2.134;2022-10-16T01:34:19;8.80;99.90
23629;DHT22;11991;57.150;-2.134;2022-10-16T01:36:54;8.80;99.90
23629;DHT22;11991;57.150;-2.134;2022-10-16T01:39:28;8.80;99.90
23629;DHT22;11991;57.150;-2.134;2022-10-16T01:42:02;8.80;99.90
23629;DHT22;11991;57.150;-2.134;2022-10-16T01:44:32;8.80;99.90
23629;DHT22;11991;57.150;-2.134;2022-10-16T01:47:01;8.80;99.90
23629;DHT22;11991;57.150;-2.134;2022-10-16T01:49:32;8.80;99.90
23629;DHT22;11991;57.150;-2.134;2022-10-16T01:52:05;8.80;99.90
23629;DHT22;11991;57.150;-2.134;2022-10-16T01:54:35;8.90;99.90
23629;DHT22;11991;57.150;-2.134;2022-10-16T01:57:06;8.80;99.90
23629;DHT22;11991;57.150;-2.134;2022-10-16T01:59:40;8.80;99.90
23629;DHT22;11991;57.150;-2.134;2022-10-16T02:02:10;8.80;99.90
23629;DHT22;11991;57.150;-2.134;2022-10-16T02:04:44;8.80;99.90
23629;DHT22;11991;57.150;-2.134;2022-10-16T02:07:12;8.80;99.90
23629;DHT22;11991;57.150;-2.134;2022-10-16T02:09:40;8.80;99.90
23629;DHT22;11991;57.150;-2.134;2022-10-16T02:12:37;8.70;99.90
23629;DHT22;11991;57.150;-2.134;2022-10-16T02:15:07;8.70;99.90
23629;DHT22;11991;57.150;-2.134;2022-10-16T02:17:35;8.80;99.90
23629;DHT22;11991;57.150;-2.134;2022-10-16T02:20:03;8.80;99.90
23629;DHT22;11991;57.150;-2.134;2022-10-16T02:22:40;8.80;99.90
23629;DHT22;11991;57.150;-2.134;2022-10-16T02:25:17;8.80;99.90
23629;DHT22;11991;57.150;-2.134;2022-10-16T02:28:07;8.80;99.90
23629;DHT22;11991;57.150;-2.134;2022-10-16T02:30:37;8.80;99.90
23629;DHT22;11991;57.150;-2.134;2022-10-16T02:33:09;8.80;99.90
23629;DHT22;11991;57.150;-2.134;2022-10-16T02:35:37;8.80;99.90
23629;DHT22;11991;57.150;-2.134;2022-10-16T02:38:06;8.80;99.90
23629;DHT22;11991;57.150;-2.134;2022-10-16T02:40:34;8.80;99.90
23629;DHT22;11991;57.150;-2.134;2022-10-16T02:43:03;8.80;99.90
23629;DHT22;11991;57.150;-2.134;2022-10-16T02:45:31;8.80;99.90
23629;DHT22;11991;57.150;-2.134;2022-10-16T02:47:58;8.80;99.90
23629;DHT22;11991;57.150;-2.134;2022-10-16T02:50:26;8.80;99.90
23629;DHT22;11991;57.150;-2.134;2022-10-16T02:52:53;8.70;99.90
23629;DHT22;11991;57.150;-2.134;2022-10-16T02:55:20;8.70;99.90
23629;DHT22;11991;57.150;-2.134;2022-10-16T02:57:47;8.70;99.90
23629;DHT22;11991;57.150;-2.134;2022-10-16T03:00:16;8.70;99.90
23629;DHT22;11991;57.150;-2.134;2022-10-16T03:02:44;8.70;99.90
23629;DHT22;11991;57.150;-2.134;2022-10-16T03:05:11;8.60;99.90
23629;DHT22;11991;57.150;-2.134;2022-10-16T03:07:38;8.60;99.90
23629;DHT22;11991;57.150;-2.134;2022-10-16T03:10:06;8.50;99.90
23629;DHT22;11991;57.150;-2.134;2022-10-16T03:12:34;8.50;99.90
23629;DHT22;11991;57.150;-2.134;2022-10-16T03:15:01;8.50;99.90
23629;DHT22;11991;57.150;-2.134;2022-10-16T03:17:29;8.50;99.90
23629;DHT22;11991;57.150;-2.134;2022-10-16T03:19:56;8.50;99.90
23629;DHT22;11991;57.150;-2.134;2022-10-16T03:22:23;8.50;99.90
23629;DHT22;11991;57.150;-2.134;2022-10-16T03:24:51;8.40;99.90
23629;DHT22;11991;57.150;-2.134;2022-10-16T03:27:18;8.40;99.90
23629;DHT22;11991;57.150;-2.134;2022-10-16T03:29:45;8.40;99.90
23629;DHT22;11991;57.150;-2.134;2022-10-16T03:32:12;8.40;99.90
23629;DHT22;11991;57.150;-2.134;2022-10-16T03:34:39;8.40;99.90
23629;DHT22;11991;57.150;-2.134;2022-10-16T03:37:06;8.40;99.90
23629;DHT22;11991;57.150;-2.134;2022-10-16T03:39:34;8.30;99.90
23629;DHT22;11991;57.150;-2.134;2022-10-16T03:42:01;8.30;99.90
23629;DHT22;11991;57.150;-2.134;2022-10-16T03:44:29;8.30;99.90
23629;DHT22;11991;57.150;-2.134;2022-10-16T03:46:56;8.30;99.90
23629;DHT22;11991;57.150;-2.134;2022-10-16T03:49:23;8.20;99.90
23629;DHT22;11991;57.150;-2.134;2022-10-16T03:51:50;8.20;99.90
23629;DHT22;11991;57.150;-2.134;2022-10-16T03:54:17;8.20;99.90
23629;DHT22;11991;57.150;-2.134;2022-10-16T03:56:45;8.20;99.90
23629;DHT22;11991;57.150;-2.134;2022-10-16T03:59:13;8.10;99.90
23629;DHT22;11991;57.150;-2.134;2022-10-16T04:01:40;8.10;99.90
23629;DHT22;11991;57.150;-2.134;2022-10-16T04:04:07;8.10;99.90
23629;DHT22;11991;57.150;-2.134;2022-10-16T04:06:34;8.10;99.90
23629;DHT22;11991;57.150;-2.134;2022-10-16T04:09:02;8.10;99.90
23629;DHT22;11991;57.150;-2.134;2022-10-16T04:11:29;8.00;99.90
23629;DHT22;11991;57.150;-2.134;2022-10-16T04:13:57;8.00;99.90
23629;DHT22;11991;57.150;-2.134;2022-10-16T04:16:24;8.00;99.90
23629;DHT22;11991;57.150;-2.134;2022-10-16T04:18:51;8.00;99.90
23629;DHT22;11991;57.150;-2.134;2022-10-16T04:21:18;8.00;99.90
23629;DHT22;11991;57.150;-2.134;2022-10-16T04:23:45;7.90;99.90
23629;DHT22;11991;57.150;-2.134;2022-10-16T04:26:12;7.90;99.90
23629;DHT22;11991;57.150;-2.134;2022-10-16T04:28:40;7.90;99.90
23629;DHT22;11991;57.150;-2.134;2022-10-16T04:31:07;7.80;99.90
23629;DHT22;11991;57.150;-2.134;2022-10-16T04:33:34;7.80;99.90
23629;DHT22;11991;57.150;-2.134;2022-10-16T04:36:02;7.80;99.90
23629;DHT22;11991;57.150;-2.134;2022-10-16T04:38:30;7.70;99.90
23629;DHT22;11991;57.150;-2.134;2022-10-16T04:40:58;7.70;99.90
23629;DHT22;11991;57.150;-2.134;2022-10-16T04:43:26;7.70;99.90
23629;DHT22;11991;57.150;-2.134;2022-10-16T04:45:54;7.70;99.90
23629;DHT22;11991;57.150;-2.134;2022-10-16T04:48:23;7.70;99.90
23629;DHT22;11991;57.150;-2.134;2022-10-16T04:50:50;7.60;99.90
23629;DHT22;11991;57.150;-2.134;2022-10-16T04:53:21;7.60;99.90
23629;DHT22;11991;57.150;-2.134;2022-10-16T04:55:49;7.60;99.90
23629;DHT22;11991;57.150;-2.134;2022-10-16T04:58:16;7.60;99.90
23629;DHT22;11991;57.150;-2.134;2022-10-16T05:00:44;7.60;99.90
23629;DHT22;11991;57.150;-2.134;2022-10-16T05:03:13;7.60;99.90
23629;DHT22;11991;57.150;-2.134;2022-10-16T05:05:45;7.60;99.90
23629;DHT22;11991;57.150;-2.134;2022-10-16T05:08:14;7.60;99.90
23629;DHT22;11991;57.150;-2.134;2022-10-16T05:10:42;7.60;99.90
23629;DHT22;11991;57.150;-2.134;2022-10-16T05:13:10;7.60;99.90
23629;DHT22;11991;57.150;-2.134;2022-10-16T05:15:37;7.50;99.90
23629;DHT22;11991;57.150;-2.134;2022-10-16T05:18:04;7.50;99.90
23629;DHT22;11991;57.150;-2.134;2022-10-16T05:20:32;7.40;99.90
23629;DHT22;11991;57.150;-2.134;2022-10-16T05:22:59;7.50;99.90
23629;DHT22;11991;57.150;-2.134;2022-10-16T05:25:26;7.40;99.90
23629;DHT22;11991;57.150;-2.134;2022-10-16T05:27:54;7.40;99.90
23629;DHT22;11991;57.150;-2.134;2022-10-16T05:30:21;7.40;99.90
23629;DHT22;11991;57.150;-2.134;2022-10-16T05:32:49;7.40;99.90
23629;DHT22;11991;57.150;-2.134;2022-10-16T05:35:17;7.40;99.90
23629;DHT22;11991;57.150;-2.134;2022-10-16T05:37:45;7.40;99.90
23629;DHT22;11991;57.150;-2.134;2022-10-16T05:40:13;7.40;99.90
23629;DHT22;11991;57.150;-2.134;2022-10-16T05:42:40;7.30;99.90
23629;DHT22;11991;57.150;-2.134;2022-10-16T05:45:10;7.30;99.90
23629;DHT22;11991;57.150;-2.134;2022-10-16T05:47:38;7.30;99.90
23629;DHT22;11991;57.150;-2.134;2022-10-16T05:50:05;7.30;99.90
23629;DHT22;11991;57.150;-2.134;2022-10-16T05:52:32;7.20;99.90
23629;DHT22;11991;57.150;-2.134;2022-10-16T05:54:59;7.20;99.90
23629;DHT22;11991;57.150;-2.134;2022-10-16T05:57:27;7.20;99.90
23629;DHT22;11991;57.150;-2.134;2022-10-16T05:59:55;7.20;99.90
23629;DHT22;11991;57.150;-2.134;2022-10-16T06:02:22;7.20;99.90
23629;DHT22;11991;57.150;-2.134;2022-10-16T06:04:51;7.20;99.90
23629;DHT22;11991;57.150;-2.134;2022-10-16T06:07:21;7.10;99.90
23629;DHT22;11991;57.150;-2.134;2022-10-16T06:09:49;7.20;99.90
23629;DHT22;11991;57.150;-2.134;2022-10-16T06:12:17;7.10;99.90
23629;DHT22;11991;57.150;-2.134;2022-10-16T06:14:45;7.10;99.90
23629;DHT22;11991;57.150;-2.134;2022-10-16T06:17:14;7.10;99.90
23629;DHT22;11991;57.150;-2.134;2022-10-16T06:19:41;7.10;99.90
23629;DHT22;11991;57.150;-2.134;2022-10-16T06:22:09;7.10;99.90
23629;DHT22;11991;57.150;-2.134;2022-10-16T06:24:36;7.10;99.90
23629;DHT22;11991;57.150;-2.134;2022-10-16T06:27:04;7.10;99.90
23629;DHT22;11991;57.150;-2.134;2022-10-16T06:29:31;7.00;99.90
23629;DHT22;11991;57.150;-2.134;2022-10-16T06:31:59;7.00;99.90
23629;DHT22;11991;57.150;-2.134;2022-10-16T06:34:26;7.00;99.90
23629;DHT22;11991;57.150;-2.134;2022-10-16T06:36:53;7.00;99.90
23629;DHT22;11991;57.150;-2.134;2022-10-16T06:39:21;7.00;99.90
23629;DHT22;11991;57.150;-2.134;2022-10-16T06:41:48;7.00;99.90
23629;DHT22;11991;57.150;-2.134;2022-10-16T06:44:15;6.90;99.90
23629;DHT22;11991;57.150;-2.134;2022-10-16T06:46:43;6.90;99.90
23629;DHT22;11991;57.150;-2.134;2022-10-16T06:49:10;6.90;99.90
23629;DHT22;11991;57.150;-2.134;2022-10-16T06:51:37;6.90;99.90
23629;DHT22;11991;57.150;-2.134;2022-10-16T06:54:09;6.90;99.90
23629;DHT22;11991;57.150;-2.134;2022-10-16T06:56:37;6.90;99.90
23629;DHT22;11991;57.150;-2.134;2022-10-16T06:59:04;6.90;99.90
23629;DHT22;11991;57.150;-2.134;2022-10-16T07:01:32;6.90;99.90
23629;DHT22;11991;57.150;-2.134;2022-10-16T07:04:00;6.90;99.90
23629;DHT22;11991;57.150;-2.134;2022-10-16T07:06:32;6.90;99.90
23629;DHT22;11991;57.150;-2.134;2022-10-16T07:09:03;6.90;99.90
23629;DHT22;11991;57.150;-2.134;2022-10-16T07:11:31;6.90;99.90
23629;DHT22;11991;57.150;-2.134;2022-10-16T07:13:59;6.90;99.90
23629;DHT22;11991;57.150;-2.134;2022-10-16T07:16:28;6.90;99.90
23629;DHT22;11991;57.150;-2.134;2022-10-16T07:19:00;6.90;99.90
23629;DHT22;11991;57.150;-2.134;2022-10-16T07:21:33;6.90;99.90
23629;DHT22;11991;57.150;-2.134;2022-10-16T07:24:06;6.90;99.90
23629;DHT22;11991;57.150;-2.134;2022-10-16T07:26:36;6.80;99.90
23629;DHT22;11991;57.150;-2.134;2022-10-16T07:29:04;6.80;99.90
23629;DHT22;11991;57.150;-2.134;2022-10-16T07:31:31;6.80;99.90
23629;DHT22;11991;57.150;-2.134;2022-10-16T07:33:59;6.90;99.90
23629;DHT22;11991;57.150;-2.134;2022-10-16T07:36:27;6.90;99.90
23629;DHT22;11991;57.150;-2.134;2022-10-16T07:38:54;6.80;99.90
23629;DHT22;11991;57.150;-2.134;2022-10-16T07:41:26;6.90;99.90
23629;DHT22;11991;57.150;-2.134;2022-10-16T07:43:54;6.90;99.90
23629;DHT22;11991;57.150;-2.134;2022-10-16T07:46:22;6.90;99.90
23629;DHT22;11991;57.150;-2.134;2022-10-16T07:48:50;6.90;99.90
23629;DHT22;11991;57.150;-2.134;2022-10-16T07:51:19;6.90;99.90
23629;DHT22;11991;57.150;-2.134;2022-10-16T07:53:47;6.90;99.90
23629;DHT22;11991;57.150;-2.134;2022-10-16T07:56:15;6.90;99.90
23629;DHT22;11991;57.150;-2.134;2022-10-16T07:58:43;7.00;99.90
23629;DHT22;11991;57.150;-2.134;2022-10-16T08:01:15;7.00;99.90
23629;DHT22;11991;57.150;-2.134;2022-10-16T08:03:44;7.10;99.90
23629;DHT22;11991;57.150;-2.134;2022-10-16T08:06:12;7.10;99.90
23629;DHT22;11991;57.150;-2.134;2022-10-16T08:08:39;7.20;99.90
23629;DHT22;11991;57.150;-2.134;2022-10-16T08:11:06;7.20;99.90
23629;DHT22;11991;57.150;-2.134;2022-10-16T08:13:34;7.20;99.90
23629;DHT22;11991;57.150;-2.134;2022-10-16T08:16:01;7.30;99.90
23629;DHT22;11991;57.150;-2.134;2022-10-16T08:18:30;7.30;99.90
23629;DHT22;11991;57.150;-2.134;2022-10-16T08:20:59;7.40;99.90
23629;DHT22;11991;57.150;-2.134;2022-10-16T08:23:27;7.40;99.90
23629;DHT22;11991;57.150;-2.134;2022-10-16T08:25:56;7.40;99.90
23629;DHT22;11991;57.150;-2.134;2022-10-16T08:28:23;7.50;99.90
23629;DHT22;11991;57.150;-2.134;2022-10-16T08:30:50;7.50;99.90
23629;DHT22;11991;57.150;-2.134;2022-10-16T08:33:18;7.50;99.90
23629;DHT22;11991;57.150;-2.134;2022-10-16T08:35:52;7.60;99.90
23629;DHT22;11991;57.150;-2.134;2022-10-16T08:38:20;7.60;99.90
23629;DHT22;11991;57.150;-2.134;2022-10-16T08:40:47;7.70;99.90
23629;DHT22;11991;57.150;-2.134;2022-10-16T08:48:40;7.80;99.90
23629;DHT22;11991;57.150;-2.134;2022-10-16T08:51:19;7.80;99.90
23629;DHT22;11991;57.150;-2.134;2022-10-16T08:54:26;7.80;99.90
23629;DHT22;11991;57.150;-2.134;2022-10-16T08:56:56;7.90;99.90
23629;DHT22;11991;57.150;-2.134;2022-10-16T08:59:23;7.90;99.90
23629;DHT22;11991;57.150;-2.134;2022-10-16T09:01:52;7.90;99.90
23629;DHT22;11991;57.150;-2.134;2022-10-16T09:14:43;8.10;99.90
23629;DHT22;11991;57.150;-2.134;2022-10-16T09:17:30;8.20;99.90
23629;DHT22;11991;57.150;-2.134;2022-10-16T09:22:47;8.30;99.90
23629;DHT22;11991;57.150;-2.134;2022-10-16T09:25:17;8.30;99.90
23629;DHT22;11991;57.150;-2.134;2022-10-16T09:27:50;8.30;99.90
23629;DHT22;11991;57.150;-2.134;2022-10-16T09:30:21;8.40;99.90
23629;DHT22;11991;57.150;-2.134;2022-10-16T09:32:51;8.40;99.90
23629;DHT22;11991;57.150;-2.134;2022-10-16T09:35:22;8.50;99.90
23629;DHT22;11991;57.150;-2.134;2022-10-16T09:37:50;8.50;99.90
23629;DHT22;11991;57.150;-2.134;2022-10-16T09:40:38;8.60;99.90
23629;DHT22;11991;57.150;-2.134;2022-10-16T09:45:53;8.70;99.90
23629;DHT22;11991;57.150;-2.134;2022-10-16T09:48:22;8.70;99.90
23629;DHT22;11991;57.150;-2.134;2022-10-16T09:51:03;8.80;99.90
23629;DHT22;11991;57.150;-2.134;2022-10-16T09:53:44;8.80;99.90
23629;DHT22;11991;57.150;-2.134;2022-10-16T09:56:39;8.90;99.90
23629;DHT22;11991;57.150;-2.134;2022-10-16T09:59:21;8.90;99.90
23629;DHT22;11991;57.150;-2.134;2022-10-16T10:01:54;9.00;99.90
23629;DHT22;11991;57.150;-2.134;2022-10-16T10:04:23;9.00;99.90
23629;DHT22;11991;57.150;-2.134;2022-10-16T10:06:56;9.10;99.90
23629;DHT22;11991;57.150;-2.134;2022-10-16T10:09:33;9.10;99.90
23629;DHT22;11991;57.150;-2.134;2022-10-16T10:12:05;9.20;99.90
23629;DHT22;11991;57.150;-2.134;2022-10-16T10:14:49;9.30;99.90
23629;DHT22;11991;57.150;-2.134;2022-10-16T10:17:19;9.30;99.90
23629;DHT22;11991;57.150;-2.134;2022-10-16T10:19:54;9.40;99.90
23629;DHT22;11991;57.150;-2.134;2022-10-16T10:22:31;9.50;99.90
23629;DHT22;11991;57.150;-2.134;2022-10-16T10:27:53;9.60;99.90
23629;DHT22;11991;57.150;-2.134;2022-10-16T10:36:10;9.80;99.90
23629;DHT22;11991;57.150;-2.134;2022-10-16T10:47:59;10.10;99.90
23629;DHT22;11991;57.150;-2.134;2022-10-16T10:50:25;10.20;99.90
23629;DHT22;11991;57.150;-2.134;2022-10-16T10:52:58;10.20;99.90
23629;DHT22;11991;57.150;-2.134;2022-10-16T10:55:52;10.30;99.90
23629;DHT22;11991;57.150;-2.134;2022-10-16T11:07:28;10.50;99.90
23629;DHT22;11991;57.150;-2.134;2022-10-16T11:10:07;10.60;99.90
23629;DHT22;11991;57.150;-2.134;2022-10-16T11:12:40;10.70;99.90
23629;DHT22;11991;57.150;-2.134;2022-10-16T11:15:19;10.80;99.90
23629;DHT22;11991;57.150;-2.134;2022-10-16T11:17:52;10.80;99.90
23629;DHT22;11991;57.150;-2.134;2022-10-16T11:20:24;10.90;99.90
23629;DHT22;11991;57.150;-2.134;2022-10-16T11:23:02;10.90;99.90
23629;DHT22;11991;57.150;-2.134;2022-10-16T11:25:33;11.00;99.90
23629;DHT22;11991;57.150;-2.134;2022-10-16T11:28:27;11.10;99.90
23629;DHT22;11991;57.150;-2.134;2022-10-16T11:31:03;11.20;99.90
23629;DHT22;11991;57.150;-2.134;2022-10-16T11:33:36;11.30;99.90
23629;DHT22;11991;57.150;-2.134;2022-10-16T11:39:09;11.40;99.90
23629;DHT22;11991;57.150;-2.134;2022-10-16T11:41:47;11.50;99.90
23629;DHT22;11991;57.150;-2.134;2022-10-16T11:50:13;11.60;99.90
23629;DHT22;11991;57.150;-2.134;2022-10-16T11:55:45;11.70;99.90
23629;DHT22;11991;57.150;-2.134;2022-10-16T11:58:43;11.70;99.90
23629;DHT22;11991;57.150;-2.134;2022-10-16T12:01:43;11.80;99.90
23629;DHT22;11991;57.150;-2.134;2022-10-16T12:07:05;11.90;99.90
23629;DHT22;11991;57.150;-2.134;2022-10-16T12:09:37;12.00;99.90
23629;DHT22;11991;57.150;-2.134;2022-10-16T12:12:41;12.00;99.90
23629;DHT22;11991;57.150;-2.134;2022-10-16T12:15:27;12.10;99.90
23629;DHT22;11991;57.150;-2.134;2022-10-16T12:18:23;12.20;99.90
23629;DHT22;11991;57.150;-2.134;2022-10-16T12:20:57;12.30;99.90
23629;DHT22;11991;57.150;-2.134;2022-10-16T12:23:28;12.40;99.90
23629;DHT22;11991;57.150;-2.134;2022-10-16T12:25:56;12.40;99.90
23629;DHT22;11991;57.150;-2.134;2022-10-16T12:28:29;12.50;99.90
23629;DHT22;11991;57.150;-2.134;2022-10-16T12:31:06;12.50;99.90
23629;DHT22;11991;57.150;-2.134;2022-10-16T12:33:52;12.50;99.90
23629;DHT22;11991;57.150;-2.134;2022-10-16T12:36:34;12.50;99.90
23629;DHT22;11991;57.150;-2.134;2022-10-16T12:39:02;12.60;99.90
23629;DHT22;11991;57.150;-2.134;2022-10-16T12:41:32;12.70;99.90
23629;DHT22;11991;57.150;-2.134;2022-10-16T12:44:00;12.80;99.90
23629;DHT22;11991;57.150;-2.134;2022-10-16T12:51:41;13.10;99.90
23629;DHT22;11991;57.150;-2.134;2022-10-16T12:54:16;13.10;99.90
23629;DHT22;11991;57.150;-2.134;2022-10-16T13:05:34;13.30;99.90
23629;DHT22;11991;57.150;-2.134;2022-10-16T13:11:08;13.40;99.90
23629;DHT22;11991;57.150;-2.134;2022-10-16T13:16:36;13.50;99.90
23629;DHT22;11991;57.150;-2.134;2022-10-16T13:22:17;13.50;99.90
23629;DHT22;11991;57.150;-2.134;2022-10-16T13:25:08;13.50;99.90
23629;DHT22;11991;57.150;-2.134;2022-10-16T13:27:57;13.50;99.90
23629;DHT22;11991;57.150;-2.134;2022-10-16T13:30:28;13.50;99.90
23629;DHT22;11991;57.150;-2.134;2022-10-16T13:35:30;13.50;99.90
23629;DHT22;11991;57.150;-2.134;2022-10-16T13:38:14;13.50;99.90
23629;DHT22;11991;57.150;-2.134;2022-10-16T13:40:54;13.50;99.90
23629;DHT22;11991;57.150;-2.134;2022-10-16T13:46:16;13.50;99.90
23629;DHT22;11991;57.150;-2.134;2022-10-16T13:48:44;13.40;99.90
23629;DHT22;11991;57.150;-2.134;2022-10-16T13:53:39;13.40;99.90
23629;DHT22;11991;57.150;-2.134;2022-10-16T13:56:14;13.30;99.90
23629;DHT22;11991;57.150;-2.134;2022-10-16T13:58:42;13.30;99.90
23629;DHT22;11991;57.150;-2.134;2022-10-16T14:01:28;13.30;99.90
23629;DHT22;11991;57.150;-2.134;2022-10-16T14:04:08;13.30;99.90
23629;DHT22;11991;57.150;-2.134;2022-10-16T14:06:40;13.30;99.90
23629;DHT22;11991;57.150;-2.134;2022-10-16T14:11:50;13.40;99.90
23629;DHT22;11991;57.150;-2.134;2022-10-16T14:14:19;13.40;99.90
23629;DHT22;11991;57.150;-2.134;2022-10-16T14:16:47;13.40;99.90
23629;DHT22;11991;57.150;-2.134;2022-10-16T14:19:35;13.50;99.90
23629;DHT22;11991;57.150;-2.134;2022-10-16T14:22:20;13.50;99.90
23629;DHT22;11991;57.150;-2.134;2022-10-16T14:24:48;13.50;99.90
23629;DHT22;11991;57.150;-2.134;2022-10-16T14:27:29;13.50;99.90
23629;DHT22;11991;57.150;-2.134;2022-10-16T14:30:19;13.60;99.90
23629;DHT22;11991;57.150;-2.134;2022-10-16T14:33:04;13.60;99.90
23629;DHT22;11991;57.150;-2.134;2022-10-16T14:35:37;13.60;99.90
23629;DHT22;11991;57.150;-2.134;2022-10-16T14:38:17;13.60;99.90
23629;DHT22;11991;57.150;-2.134;2022-10-16T14:40:49;13.60;99.90
23629;DHT22;11991;57.150;-2.134;2022-10-16T14:43:36;13.60;99.90
23629;DHT22;11991;57.150;-2.134;2022-10-16T14:46:15;13.60;99.90
23629;DHT22;11991;57.150;-2.134;2022-10-16T14:48:49;13.60;99.90
23629;DHT22;11991;57.150;-2.134;2022-10-16T14:51:18;13.60;99.90
23629;DHT22;11991;57.150;-2.134;2022-10-16T14:53:46;13.60;99.90
23629;DHT22;11991;57.150;-2.134;2022-10-16T14:56:22;13.60;99.90
23629;DHT22;11991;57.150;-2.134;2022-10-16T14:58:51;13.60;99.90
23629;DHT22;11991;57.150;-2.134;2022-10-16T15:01:19;13.50;99.90
23629;DHT22;11991;57.150;-2.134;2022-10-16T15:03:47;13.50;99.90
23629;DHT22;11991;57.150;-2.134;2022-10-16T15:06:15;13.40;99.90
23629;DHT22;11991;57.150;-2.134;2022-10-16T15:08:43;13.50;99.90
23629;DHT22;11991;57.150;-2.134;2022-10-16T15:11:16;13.50;99.90
23629;DHT22;11991;57.150;-2.134;2022-10-16T15:13:43;13.50;99.90
23629;DHT22;11991;57.150;-2.134;2022-10-16T15:16:13;13.50;99.90
23629;DHT22;11991;57.150;-2.134;2022-10-16T15:18:41;13.50;99.90
23629;DHT22;11991;57.150;-2.134;2022-10-16T15:23:49;13.60;99.90
23629;DHT22;11991;57.150;-2.134;2022-10-16T15:26:17;13.70;99.90
23629;DHT22;11991;57.150;-2.134;2022-10-16T15:28:45;13.70;99.90
23629;DHT22;11991;57.150;-2.134;2022-10-16T15:31:12;13.70;99.90
23629;DHT22;11991;57.150;-2.134;2022-10-16T15:33:39;13.70;99.90
23629;DHT22;11991;57.150;-2.134;2022-10-16T15:36:07;13.70;99.90
23629;DHT22;11991;57.150;-2.134;2022-10-16T15:38:35;13.70;99.90
23629;DHT22;11991;57.150;-2.134;2022-10-16T15:41:03;13.70;99.90
23629;DHT22;11991;57.150;-2.134;2022-10-16T15:43:30;13.70;99.90
23629;DHT22;11991;57.150;-2.134;2022-10-16T15:46:03;13.70;99.90
23629;DHT22;11991;57.150;-2.134;2022-10-16T15:48:31;13.70;99.90
23629;DHT22;11991;57.150;-2.134;2022-10-16T15:50:59;13.70;99.90
23629;DHT22;11991;57.150;-2.134;2022-10-16T15:53:27;13.70;99.90
23629;DHT22;11991;57.150;-2.134;2022-10-16T15:55:54;13.60;99.90
23629;DHT22;11991;57.150;-2.134;2022-10-16T15:58:22;13.60;99.90
23629;DHT22;11991;57.150;-2.134;2022-10-16T16:00:59;13.60;99.90
23629;DHT22;11991;57.150;-2.134;2022-10-16T16:03:33;13.60;99.90
23629;DHT22;11991;57.150;-2.134;2022-10-16T16:06:08;13.60;99.90
23629;DHT22;11991;57.150;-2.134;2022-10-16T16:08:37;13.50;99.90
23629;DHT22;11991;57.150;-2.134;2022-10-16T16:11:07;13.50;99.90
23629;DHT22;11991;57.150;-2.134;2022-10-16T16:13:35;13.50;99.90
23629;DHT22;11991;57.150;-2.134;2022-10-16T16:16:14;13.40;99.90
23629;DHT22;11991;57.150;-2.134;2022-10-16T16:18:42;13.30;99.90
23629;DHT22;11991;57.150;-2.134;2022-10-16T16:21:11;13.30;99.90
23629;DHT22;11991;57.150;-2.134;2022-10-16T16:23:39;13.20;99.90
23629;DHT22;11991;57.150;-2.134;2022-10-16T16:26:15;13.20;99.90
23629;DHT22;11991;57.150;-2.134;2022-10-16T16:28:43;13.10;99.90
23629;DHT22;11991;57.150;-2.134;2022-10-16T16:34:31;12.80;99.90
23629;DHT22;11991;57.150;-2.134;2022-10-16T16:36:58;12.70;99.90
23629;DHT22;11991;57.150;-2.134;2022-10-16T16:39:25;12.60;99.90
23629;DHT22;11991;57.150;-2.134;2022-10-16T16:41:55;12.60;99.90
23629;DHT22;11991;57.150;-2.134;2022-10-16T16:44:23;12.50;99.90
23629;DHT22;11991;57.150;-2.134;2022-10-16T16:46:51;12.40;99.90
23629;DHT22;11991;57.150;-2.134;2022-10-16T16:49:18;12.40;99.90
23629;DHT22;11991;57.150;-2.134;2022-10-16T16:51:45;12.30;99.90
23629;DHT22;11991;57.150;-2.134;2022-10-16T16:54:13;12.30;99.90
23629;DHT22;11991;57.150;-2.134;2022-10-16T16:56:41;12.20;99.90
23629;DHT22;11991;57.150;-2.134;2022-10-16T16:59:13;12.10;99.90
23629;DHT22;11991;57.150;-2.134;2022-10-16T17:01:42;12.00;99.90
23629;DHT22;11991;57.150;-2.134;2022-10-16T17:04:10;11.90;99.90
23629;DHT22;11991;57.150;-2.134;2022-10-16T17:07:02;11.90;99.90
23629;DHT22;11991;57.150;-2.134;2022-10-16T17:09:32;11.80;99.90
23629;DHT22;11991;57.150;-2.134;2022-10-16T17:12:00;11.70;99.90
23629;DHT22;11991;57.150;-2.134;2022-10-16T17:14:27;11.60;99.90
23629;DHT22;11991;57.150;-2.134;2022-10-16T17:16:54;11.60;99.90
23629;DHT22;11991;57.150;-2.134;2022-10-16T17:19:22;11.50;99.90
23629;DHT22;11991;57.150;-2.134;2022-10-16T17:21:50;11.40;99.90
23629;DHT22;11991;57.150;-2.134;2022-10-16T17:24:18;11.40;99.90
23629;DHT22;11991;57.150;-2.134;2022-10-16T17:26:48;11.40;99.90
23629;DHT22;11991;57.150;-2.134;2022-10-16T17:29:17;11.30;99.90
23629;DHT22;11991;57.150;-2.134;2022-10-16T17:31:45;11.20;99.90
23629;DHT22;11991;57.150;-2.134;2022-10-16T17:34:12;11.20;99.90
23629;DHT22;11991;57.150;-2.134;2022-10-16T17:36:40;11.10;99.90
23629;DHT22;11991;57.150;-2.134;2022-10-16T17:39:14;11.10;99.90
23629;DHT22;11991;57.150;-2.134;2022-10-16T17:41:45;11.00;99.90
23629;DHT22;11991;57.150;-2.134;2022-10-16T17:44:12;10.90;99.90
23629;DHT22;11991;57.150;-2.134;2022-10-16T17:46:52;10.90;99.90
23629;DHT22;11991;57.150;-2.134;2022-10-16T17:49:20;10.90;99.90
23629;DHT22;11991;57.150;-2.134;2022-10-16T17:51:52;10.90;99.90
23629;DHT22;11991;57.150;-2.134;2022-10-16T17:54:20;10.80;99.90
23629;DHT22;11991;57.150;-2.134;2022-10-16T17:56:47;10.80;99.90